Time;durP1;ratioP1;P1;durP2;ratioP2;P2;SDS_P1;SDS_P2;PMS_P1;PMS_P2;Temp;Humidity;BMP_temperature;BMP_pressure;BME280_temperature;BME280_humidity;BME280_pressure;Samples;Min_cycle;Max_cycle;Signal;HPM_P1;HPM_P2
2021/01/10 00:01:24;;;;;;;;;;;;;;;;;;5041132;28;19964;-64
2021/01/10 00:03:50;;;;;;;;;;;;;;;;;;5048332;28;20396;-65
2021/01/10 00:06:16;;;;;;;;;;;;;;;;;;5047549;28;19928;-63
2021/01/10 00:08:41;;;;;;;;;;;;;;;;;;5046793;28;19912;-65
2021/01/10 00:11:07;;;;;;;;;;;;;;;;;;5050738;28;19939;-64
2021/01/10 00:13:33;;;;;;;;;;;;;;;;;;5043435;28;19917;-65
2021/01/10 00:15:59;;;;;;;;;;;;;;;;;;5048379;28;19917;-64
2021/01/10 00:18:25;;;;;;;;;;;;;;;;;;5048552;28;19971;-64
2021/01/10 00:20:51;;;;;;;;;;;;;;;;;;5041446;28;19924;-64
2021/01/10 00:23:17;;;;;;;;;;;;;;;;;;5051567;28;19920;-64
2021/01/10 00:25:43;;;;;;;;;;;;;;;;;;5040046;28;20277;-63
2021/01/10 00:28:09;;;;;;;;;;;;;;;;;;5045099;28;20617;-64
2021/01/10 00:30:35;;;;;;;;;;;;;;;;;;5044817;28;19932;-65
2021/01/10 00:33:00;;;;;;;;;;;;;;;;;;5043557;28;20380;-64
2021/01/10 00:35:26;;;;;;;;;;;;;;;;;;5050708;28;19917;-64
2021/01/10 00:37:52;;;;;;;;;;;;;;;;;;5041186;28;19971;-63
2021/01/10 00:40:18;;;;;;;;;;;;;;;;;;5043957;28;19920;-64
2021/01/10 00:42:44;;;;;;;;;;;;;;;;;;5046399;28;20723;-65
2021/01/10 00:45:10;;;;;;;;;;;;;;;;;;5042945;28;19959;-64
2021/01/10 00:47:36;;;;;;;;;;;;;;;;;;5049424;28;19920;-64
2021/01/10 00:50:02;;;;;;;;;;;;;;;;;;5038036;28;19916;-64
2021/01/10 00:52:28;;;;;;;;;;;;;;;;;;5046757;28;19916;-65
2021/01/10 00:54:54;;;;;;;;;;;;;;;;;;5046686;28;19951;-63
2021/01/10 00:57:20;;;;;;;;;;;;;;;;;;5041049;28;19913;-64
2021/01/10 00:59:46;;;;;;;;;;;;;;;;;;5051054;28;20006;-63
2021/01/10 01:02:12;;;;;;;;;;;;;;;;;;5039387;28;19917;-65
2021/01/10 01:04:38;;;;;;;;;;;;;;;;;;5046827;28;20769;-63
2021/01/10 01:07:05;;;;;;;;;;;;;;;;;;5049135;28;19999;-65
2021/01/10 01:09:30;;;;;;;;;;;;;;;;;;5041437;28;19975;-64
2021/01/10 01:11:56;;;;;;;;;;;;;;;;;;5048246;28;19959;-65
2021/01/10 01:14:22;;;;;;;;;;;;;;;;;;5044392;28;20261;-65
2021/01/10 01:16:48;;;;;;;;;;;;;;;;;;5044940;28;19916;-65
2021/01/10 01:19:14;;;;;;;;;;;;;;;;;;5045639;28;19921;-66
2021/01/10 01:21:40;;;;;;;;;;;;;;;;;;5040704;28;19928;-66
2021/01/10 01:24:06;;;;;;;;;;;;;;;;;;5049372;28;20584;-65
2021/01/10 01:26:33;;;;;;;;;;;;;;;;;;5042182;28;19956;-66
2021/01/10 01:28:59;;;;;;;;;;;;;;;;;;5045095;28;20321;-65
2021/01/10 01:31:26;;;;;;;;;;;;;;;;;;5081272;28;19963;-65
2021/01/10 01:33:52;;;;;;;;;;;;;;;;;;5038211;28;20513;-65
2021/01/10 01:36:17;;;;;;;;;;;;;;;;;;5049872;28;19963;-66
2021/01/10 01:38:43;;;;;;;;;;;;;;;;;;5042750;28;19966;-65
2021/01/10 01:41:09;;;;;;;;;;;;;;;;;;5045668;28;19936;-64
2021/01/10 01:43:35;;;;;;;;;;;;;;;;;;5051292;28;20264;-63
2021/01/10 01:46:01;;;;;;;;;;;;;;;;;;5038167;28;19968;-66
2021/01/10 01:48:27;;;;;;;;;;;;;;;;;;5050713;28;19917;-66
2021/01/10 01:50:53;;;;;;;;;;;;;;;;;;5060632;28;19916;-65
2021/01/10 01:53:19;;;;;;;;;;;;;;;;;;5043249;28;20382;-65
2021/01/10 01:55:45;;;;;;;;;;;;;;;;;;5050582;28;19923;-64
2021/01/10 01:58:11;;;;;;;;;;;;;;;;;;5038547;28;20661;-64
2021/01/10 02:00:37;;;;;;;;;;;;;;;;;;5044953;28;19963;-64
2021/01/10 02:03:02;;;;;;;;;;;;;;;;;;5058436;28;19917;-65
2021/01/10 02:05:28;;;;;;;;;;;;;;;;;;5042532;28;19920;-65
2021/01/10 02:07:54;;;;;;;;;;;;;;;;;;5049872;28;19923;-66
2021/01/10 02:10:20;;;;;;;;;;;;;;;;;;5039053;28;19920;-64
2021/01/10 02:12:46;;;;;;;;;;;;;;;;;;5046950;28;19948;-66
2021/01/10 02:15:12;;;;;;;;;;;;;;;;;;5038790;28;19995;-64
2021/01/10 02:17:38;;;;;;;;;;;;;;;;;;5039737;28;19917;-65
2021/01/10 02:20:04;;;;;;;;;;;;;;;;;;5050386;28;19966;-66
2021/01/10 02:22:30;;;;;;;;;;;;;;;;;;5037739;28;19917;-65
2021/01/10 02:24:56;;;;;;;;;;;;;;;;;;5047365;28;20003;-65
2021/01/10 02:27:22;;;;;;;;;;;;;;;;;;5042743;28;19928;-65
2021/01/10 02:29:48;;;;;;;;;;;;;;;;;;5041070;28;19913;-65
2021/01/10 02:32:13;;;;;;;;;;;;;;;;;;5048309;28;19916;-66
2021/01/10 02:34:41;;;;;;;;;;;;;;;;;;5040408;28;19971;-65
2021/01/10 02:37:10;;;;;;;;;;;;;;;;;;5046643;28;20695;-65
2021/01/10 02:39:36;;;;;;;;;;;;;;;;;;5039125;28;19948;-64
2021/01/10 02:42:02;;;;;;;;;;;;;;;;;;5044305;28;19916;-66
2021/01/10 02:44:28;;;;;;;;;;;;;;;;;;5048213;28;19924;-65
2021/01/10 02:46:53;;;;;;;;;;;;;;;;;;5038573;28;19943;-66
2021/01/10 02:49:19;;;;;;;;;;;;;;;;;;5047145;28;20287;-65
2021/01/10 02:51:45;;;;;;;;;;;;;;;;;;5042885;28;20427;-65
2021/01/10 02:54:11;;;;;;;;;;;;;;;;;;5036627;28;20307;-65
2021/01/10 02:56:37;;;;;;;;;;;;;;;;;;5052108;28;19944;-65
2021/01/10 02:59:03;;;;;;;;;;;;;;;;;;5037961;28;20007;-64
2021/01/10 03:01:29;;;;;;;;;;;;;;;;;;5046245;28;20292;-65
2021/01/10 03:03:55;;;;;;;;;;;;;;;;;;5042269;28;19921;-65
2021/01/10 03:06:21;;;;;;;;;;;;;;;;;;5041091;28;19999;-65
2021/01/10 03:08:47;;;;;;;;;;;;;;;;;;5048206;28;20376;-64
2021/01/10 03:11:13;;;;;;;;;;;;;;;;;;5042575;28;19912;-65
2021/01/10 03:13:38;;;;;;;;;;;;;;;;;;5049599;28;20381;-63
2021/01/10 03:16:04;;;;;;;;;;;;;;;;;;5050055;28;19981;-64
2021/01/10 03:18:30;;;;;;;;;;;;;;;;;;5042695;28;20686;-64
2021/01/10 03:20:56;;;;;;;;;;;;;;;;;;5049942;28;20361;-63
2021/01/10 03:23:22;;;;;;;;;;;;;;;;;;5043795;28;20312;-65
2021/01/10 03:25:48;;;;;;;;;;;;;;;;;;5048886;28;19948;-64
2021/01/10 03:28:14;;;;;;;;;;;;;;;;;;5063263;28;19921;-64
2021/01/10 03:30:41;;;;;;;;;;;;;;;;;;5040642;28;19974;-65
2021/01/10 03:33:07;;;;;;;;;;;;;;;;;;5049902;28;19963;-63
2021/01/10 03:35:37;;;;;;;;;;;;;;;;;;5045271;28;19920;-64
2021/01/10 03:38:02;;;;;;;;;;;;;;;;;;5051479;28;20003;-65
2021/01/10 03:40:28;;;;;;;;;;;;;;;;;;5054866;28;20062;-65
2021/01/10 03:42:54;;;;;;;;;;;;;;;;;;5047011;28;19925;-65
2021/01/10 03:45:20;;;;;;;;;;;;;;;;;;5052562;28;19913;-65
2021/01/10 03:47:46;;;;;;;;;;;;;;;;;;5046586;28;19943;-65
2021/01/10 03:50:12;;;;;;;;;;;;;;;;;;5052856;28;19912;-64
2021/01/10 03:52:38;;;;;;;;;;;;;;;;;;5045775;28;19966;-64
2021/01/10 03:55:04;;;;;;;;;;;;;;;;;;5044513;28;19924;-63
2021/01/10 03:57:30;;;;;;;;;;;;;;;;;;5053970;28;19931;-65
2021/01/10 03:59:56;;;;;;;;;;;;;;;;;;5046355;28;19959;-64
2021/01/10 04:02:22;;;;;;;;;;;;;;;;;;5046890;28;19995;-65
2021/01/10 04:04:48;;;;;;;;;;;;;;;;;;5050978;28;19959;-65
2021/01/10 04:07:13;;;;;;;;;;;;;;;;;;5043234;28;20027;-65
2021/01/10 04:09:39;;;;;;;;;;;;;;;;;;5049477;28;19996;-64
2021/01/10 04:12:05;;;;;;;;;;;;;;;;;;5043290;28;19975;-65
2021/01/10 04:14:31;;;;;;;;;;;;;;;;;;5045171;28;19948;-65
2021/01/10 04:16:57;;;;;;;;;;;;;;;;;;5050231;28;19944;-63
2021/01/10 04:19:23;;;;;;;;;;;;;;;;;;5042148;28;19921;-65
2021/01/10 04:21:49;;;;;;;;;;;;;;;;;;5053069;28;19968;-64
2021/01/10 04:24:15;;;;;;;;;;;;;;;;;;5045241;28;20054;-65
2021/01/10 04:26:41;;;;;;;;;;;;;;;;;;5046779;28;20375;-65
2021/01/10 04:29:07;;;;;;;;;;;;;;;;;;5052187;28;20368;-65
2021/01/10 04:31:32;;;;;;;;;;;;;;;;;;5043999;28;19917;-64
2021/01/10 04:33:58;;;;;;;;;;;;;;;;;;5050085;28;20008;-65
2021/01/10 04:36:26;;;;;;;;;;;;;;;;;;5028788;28;21687;-64
2021/01/10 04:38:51;;;;;;;;;;;;;;;;;;5043973;28;19996;-64
2021/01/10 04:41:17;;;;;;;;;;;;;;;;;;5046412;28;19921;-64
2021/01/10 04:43:43;;;;;;;;;;;;;;;;;;5039195;28;19919;-64
2021/01/10 04:46:09;;;;;;;;;;;;;;;;;;5051616;28;20412;-65
2021/01/10 04:48:35;;;;;;;;;;;;;;;;;;5048496;28;19927;-64
2021/01/10 04:51:01;;;;;;;;;;;;;;;;;;5042288;28;20450;-64
2021/01/10 04:53:27;;;;;;;;;;;;;;;;;;5048957;28;20033;-64
2021/01/10 04:55:53;;;;;;;;;;;;;;;;;;5038002;28;19967;-65
2021/01/10 04:58:19;;;;;;;;;;;;;;;;;;5050824;28;20352;-64
2021/01/10 05:00:44;;;;;;;;;;;;;;;;;;5045382;28;19939;-64
2021/01/10 05:03:16;;;;;;;;;;;;;;;;;;5036709;28;19917;-64
2021/01/10 05:05:42;;;;;;;;;;;;;;;;;;5049392;28;19931;-63
2021/01/10 05:08:08;;;;;;;;;;;;;;;;;;5043233;28;19926;-65
2021/01/10 05:10:34;;;;;;;;;;;;;;;;;;5048037;28;19916;-65
2021/01/10 05:13:00;;;;;;;;;;;;;;;;;;5045486;28;19958;-65
2021/01/10 05:15:26;;;;;;;;;;;;;;;;;;5046141;28;19928;-65
2021/01/10 05:17:52;;;;;;;;;;;;;;;;;;5048118;28;19923;-65
2021/01/10 05:20:17;;;;;;;;;;;;;;;;;;5041456;28;19917;-65
2021/01/10 05:22:43;;;;;;;;;;;;;;;;;;5046931;28;19933;-64
2021/01/10 05:25:09;;;;;;;;;;;;;;;;;;5037305;28;19921;-64
2021/01/10 05:27:35;;;;;;;;;;;;;;;;;;5043869;28;19971;-64
2021/01/10 05:30:01;;;;;;;;;;;;;;;;;;5047285;28;20347;-64
2021/01/10 05:32:27;;;;;;;;;;;;;;;;;;5041477;28;19917;-65
2021/01/10 05:34:53;;;;;;;;;;;;;;;;;;5043873;28;19923;-65
2021/01/10 05:37:19;;;;;;;;;;;;;;;;;;5045222;28;20288;-64
2021/01/10 05:39:45;;;;;;;;;;;;;;;;;;5041534;28;19917;-64
2021/01/10 05:42:11;;;;;;;;;;;;;;;;;;5045780;28;20011;-65
2021/01/10 05:44:36;;;;;;;;;;;;;;;;;;5043521;28;19916;-65
2021/01/10 05:47:02;;;;;;;;;;;;;;;;;;5043581;28;19928;-64
2021/01/10 05:49:28;;;;;;;;;;;;;;;;;;5060677;28;19912;-63
2021/01/10 05:51:54;;;;;;;;;;;;;;;;;;5038192;28;19920;-64
2021/01/10 05:54:21;;;;;;;;;;;;;;;;;;5043623;28;20288;-64
2021/01/10 05:56:47;;;;;;;;;;;;;;;;;;5039428;28;20380;-66
2021/01/10 05:59:13;;;;;;;;;;;;;;;;;;5043981;28;19921;-64
2021/01/10 06:01:39;;;;;;;;;;;;;;;;;;5047712;28;19970;-64
2021/01/10 06:04:05;;;;;;;;;;;;;;;;;;5037121;28;19996;-64
2021/01/10 06:06:30;;;;;;;;;;;;;;;;;;5041501;28;20011;-64
2021/01/10 06:08:56;;;;;;;;;;;;;;;;;;5055879;28;20665;-63
2021/01/10 06:11:22;;;;;;;;;;;;;;;;;;5041525;28;19913;-63
2021/01/10 06:13:48;;;;;;;;;;;;;;;;;;5045735;28;19917;-64
2021/01/10 06:16:17;;;;;;;;;;;;;;;;;;5038986;28;19966;-64
2021/01/10 06:18:45;;;;;;;;;;;;;;;;;;5041365;28;19917;-64
2021/01/10 06:21:11;;;;;;;;;;;;;;;;;;5041455;28;19967;-65
2021/01/10 06:23:37;;;;;;;;;;;;;;;;;;5045801;28;20007;-64
2021/01/10 06:26:03;;;;;;;;;;;;;;;;;;5058020;28;19916;-64
2021/01/10 06:28:29;;;;;;;;;;;;;;;;;;5039109;28;19928;-63
2021/01/10 06:30:55;;;;;;;;;;;;;;;;;;5040054;28;19921;-64
2021/01/10 06:33:20;;;;;;;;;;;;;;;;;;5040597;28;19967;-65
2021/01/10 06:35:46;;;;;;;;;;;;;;;;;;5038702;28;19970;-65
2021/01/10 06:38:12;;;;;;;;;;;;;;;;;;5047961;28;19999;-65
2021/01/10 06:40:38;;;;;;;;;;;;;;;;;;5037091;28;19912;-64
2021/01/10 06:43:04;;;;;;;;;;;;;;;;;;5040160;28;19912;-64
2021/01/10 06:45:30;;;;;;;;;;;;;;;;;;5040390;28;19974;-64
2021/01/10 06:47:56;;;;;;;;;;;;;;;;;;5042332;28;20009;-64
2021/01/10 06:50:22;;;;;;;;;;;;;;;;;;5048379;28;19998;-64
2021/01/10 06:52:48;;;;;;;;;;;;;;;;;;5036520;28;19916;-64
2021/01/10 06:55:14;;;;;;;;;;;;;;;;;;5039464;28;19917;-64
2021/01/10 06:57:40;;;;;;;;;;;;;;;;;;5041116;28;20387;-63
2021/01/10 07:00:09;;;;;;;;;;;;;;;;;;5037399;28;19921;-64
2021/01/10 07:02:35;;;;;;;;;;;;;;;;;;5052259;28;19920;-64
2021/01/10 07:05:00;;;;;;;;;;;;;;;;;;5036111;28;19916;-64
2021/01/10 07:07:26;;;;;;;;;;;;;;;;;;5040808;28;19920;-64
2021/01/10 07:09:52;;;;;;;;;;;;;;;;;;5045519;28;19917;-65
2021/01/10 07:12:18;;;;;;;;;;;;;;;;;;5041534;28;21096;-65
2021/01/10 07:14:44;;;;;;;;;;;;;;;;;;5048686;28;19921;-65
2021/01/10 07:17:10;;;;;;;;;;;;;;;;;;5042413;28;20027;-64
2021/01/10 07:19:36;;;;;;;;;;;;;;;;;;5044056;28;20517;-64
2021/01/10 07:22:02;;;;;;;;;;;;;;;;;;5064240;28;19963;-65
2021/01/10 07:24:28;;;;;;;;;;;;;;;;;;5046109;28;21118;-64
2021/01/10 07:26:57;;;;;;;;;;;;;;;;;;5049558;28;19973;-65
2021/01/10 07:29:23;;;;;;;;;;;;;;;;;;5039449;28;19944;-65
2021/01/10 07:31:48;;;;;;;;;;;;;;;;;;5046840;28;20035;-65
2021/01/10 07:34:14;;;;;;;;;;;;;;;;;;5065724;28;19920;-65
2021/01/10 07:36:40;;;;;;;;;;;;;;;;;;5043281;28;19936;-65
2021/01/10 07:39:06;;;;;;;;;;;;;;;;;;5044456;28;19932;-64
2021/01/10 07:41:32;;;;;;;;;;;;;;;;;;5039086;28;19931;-65
2021/01/10 07:43:58;;;;;;;;;;;;;;;;;;5044454;28;19959;-65
2021/01/10 07:46:24;;;;;;;;;;;;;;;;;;5049104;28;19916;-65
2021/01/10 07:48:50;;;;;;;;;;;;;;;;;;5043532;28;20516;-64
2021/01/10 07:51:16;;;;;;;;;;;;;;;;;;5051090;28;20003;-63
2021/01/10 07:53:42;;;;;;;;;;;;;;;;;;5044474;28;19970;-64
2021/01/10 07:56:10;;;;;;;;;;;;;;;;;;5044546;28;19916;-64
2021/01/10 07:58:36;;;;;;;;;;;;;;;;;;5066148;28;20046;-64
2021/01/10 08:01:02;;;;;;;;;;;;;;;;;;5039446;28;19916;-64
2021/01/10 08:03:28;;;;;;;;;;;;;;;;;;5050341;28;19913;-65
2021/01/10 08:05:54;;;;;;;;;;;;;;;;;;5041977;28;20473;-65
2021/01/10 08:08:22;;;;;;;;;;;;;;;;;;5043012;28;20395;-64
2021/01/10 08:10:48;;;;;;;;;;;;;;;;;;5068531;28;19927;-63
2021/01/10 08:13:14;;;;;;;;;;;;;;;;;;5040190;28;19945;-65
2021/01/10 08:15:40;;;;;;;;;;;;;;;;;;5049707;28;19913;-64
2021/01/10 08:18:06;;;;;;;;;;;;;;;;;;5045458;28;19928;-64
2021/01/10 08:20:32;;;;;;;;;;;;;;;;;;5042169;28;20015;-64
2021/01/10 08:22:58;;;;;;;;;;;;;;;;;;5051645;28;20314;-64
2021/01/10 08:25:24;;;;;;;;;;;;;;;;;;5040337;28;19947;-64
2021/01/10 08:27:50;;;;;;;;;;;;;;;;;;5049043;28;19948;-65
2021/01/10 08:30:16;;;;;;;;;;;;;;;;;;5045638;28;20365;-64
2021/01/10 08:32:41;;;;;;;;;;;;;;;;;;5041450;28;20361;-65
2021/01/10 08:35:09;;;;;;;;;;;;;;;;;;5068575;28;20003;-65
2021/01/10 08:37:35;;;;;;;;;;;;;;;;;;5041095;28;20093;-64
2021/01/10 08:40:04;;;;;;;;;;;;;;;;;;5049935;28;20345;-64
2021/01/10 08:42:30;;;;;;;;;;;;;;;;;;5049239;28;19951;-65
2021/01/10 08:45:03;;;;;;;;;;;;;;;;;;5042609;28;20336;-63
2021/01/10 08:47:29;;;;;;;;;;;;;;;;;;5053903;28;19921;-65
2021/01/10 08:49:55;;;;;;;;;;;;;;;;;;5042504;28;19955;-63
2021/01/10 08:52:21;;;;;;;;;;;;;;;;;;5047568;28;20016;-65
2021/01/10 08:54:46;;;;;;;;;;;;;;;;;;5046861;28;19963;-63
2021/01/10 08:57:12;;;;;;;;;;;;;;;;;;5042059;28;20542;-62
2021/01/10 08:59:38;;;;;;;;;;;;;;;;;;5053236;28;19923;-64
2021/01/10 09:02:04;;;;;;;;;;;;;;;;;;5042919;28;19908;-63
2021/01/10 09:04:30;;;;;;;;;;;;;;;;;;5047867;28;19996;-63
2021/01/10 09:06:56;;;;;;;;;;;;;;;;;;5047787;28;20303;-63
2021/01/10 09:09:22;;;;;;;;;;;;;;;;;;5043618;28;20321;-62
2021/01/10 09:11:48;;;;;;;;;;;;;;;;;;5052648;28;19916;-62
2021/01/10 09:14:14;;;;;;;;;;;;;;;;;;5042382;28;20031;-63
2021/01/10 09:16:40;;;;;;;;;;;;;;;;;;5046129;28;19999;-64
2021/01/10 09:19:06;;;;;;;;;;;;;;;;;;5064457;28;19963;-63
2021/01/10 09:21:32;;;;;;;;;;;;;;;;;;5044200;28;19945;-63
2021/01/10 09:23:58;;;;;;;;;;;;;;;;;;5062674;28;19917;-61
2021/01/10 09:26:24;;;;;;;;;;;;;;;;;;5044491;28;19928;-61
2021/01/10 09:28:50;;;;;;;;;;;;;;;;;;5048927;28;19912;-62
2021/01/10 09:31:16;;;;;;;;;;;;;;;;;;5048032;28;19978;-62
2021/01/10 09:33:42;;;;;;;;;;;;;;;;;;5042468;28;19919;-62
2021/01/10 09:36:08;;;;;;;;;;;;;;;;;;5050739;28;19928;-62
2021/01/10 09:38:36;;;;;;;;;;;;;;;;;;5054848;28;19917;-62
2021/01/10 09:41:02;;;;;;;;;;;;;;;;;;5033338;28;19924;-62
2021/01/10 09:43:28;;;;;;;;;;;;;;;;;;5046810;28;19916;-63
2021/01/10 09:45:53;;;;;;;;;;;;;;;;;;5036687;28;20011;-62
2021/01/10 09:48:19;;;;;;;;;;;;;;;;;;5043957;28;19933;-62
2021/01/10 09:50:45;;;;;;;;;;;;;;;;;;5045007;28;20732;-62
2021/01/10 09:53:11;;;;;;;;;;;;;;;;;;5038180;28;19914;-62
2021/01/10 09:55:37;;;;;;;;;;;;;;;;;;5048839;28;19917;-61
2021/01/10 09:58:03;;;;;;;;;;;;;;;;;;5040180;28;20312;-62
2021/01/10 10:00:29;;;;;;;;;;;;;;;;;;5047419;28;20035;-62
2021/01/10 10:02:55;;;;;;;;;;;;;;;;;;5044793;28;19928;-62
2021/01/10 10:05:27;;;;;;;;;;;;;;;;;;5045066;28;19921;-62
2021/01/10 10:07:53;;;;;;;;;;;;;;;;;;5045572;28;19917;-60
2021/01/10 10:10:19;;;;;;;;;;;;;;;;;;5037507;28;19920;-64
2021/01/10 10:12:45;;;;;;;;;;;;;;;;;;5044954;28;19975;-62
2021/01/10 10:15:11;;;;;;;;;;;;;;;;;;5046059;28;20613;-62
2021/01/10 10:17:37;;;;;;;;;;;;;;;;;;5045594;28;19913;-62
2021/01/10 10:20:03;;;;;;;;;;;;;;;;;;5034410;28;19924;-62
2021/01/10 10:22:29;;;;;;;;;;;;;;;;;;5037756;28;19921;-63
2021/01/10 10:24:55;;;;;;;;;;;;;;;;;;5042809;28;19924;-61
2021/01/10 10:27:21;;;;;;;;;;;;;;;;;;5042102;28;19974;-61
2021/01/10 10:29:47;;;;;;;;;;;;;;;;;;5039760;28;20027;-61
2021/01/10 10:32:13;;;;;;;;;;;;;;;;;;5050943;28;19919;-61
2021/01/10 10:34:38;;;;;;;;;;;;;;;;;;5041697;28;19916;-62
2021/01/10 10:37:06;;;;;;;;;;;;;;;;;;5043783;28;19916;-61
2021/01/10 10:39:32;;;;;;;;;;;;;;;;;;5045217;28;19917;-60
2021/01/10 10:41:58;;;;;;;;;;;;;;;;;;5039061;28;19920;-60
2021/01/10 10:44:24;;;;;;;;;;;;;;;;;;5044077;28;19920;-60
2021/01/10 10:46:50;;;;;;;;;;;;;;;;;;5034437;28;19948;-60
2021/01/10 10:49:16;;;;;;;;;;;;;;;;;;5037481;28;19921;-62
2021/01/10 10:51:42;;;;;;;;;;;;;;;;;;5058209;28;20525;-62
2021/01/10 10:54:09;;;;;;;;;;;;;;;;;;5037835;28;19918;-62
2021/01/10 10:56:35;;;;;;;;;;;;;;;;;;5050853;28;20367;-61
2021/01/10 10:59:03;;;;;;;;;;;;;;;;;;5035662;28;19967;-61
2021/01/10 11:01:28;;;;;;;;;;;;;;;;;;5036451;28;20031;-62
2021/01/10 11:04:02;;;;;;;;;;;;;;;;;;5043675;28;19913;-62
2021/01/10 11:06:28;;;;;;;;;;;;;;;;;;5038228;28;19942;-61
2021/01/10 11:08:54;;;;;;;;;;;;;;;;;;5042195;28;19917;-61
2021/01/10 11:11:20;;;;;;;;;;;;;;;;;;5055875;28;19920;-61
2021/01/10 11:13:46;;;;;;;;;;;;;;;;;;5042464;28;20559;-60
2021/01/10 11:16:18;;;;;;;;;;;;;;;;;;5044756;28;19924;-62
2021/01/10 11:18:44;;;;;;;;;;;;;;;;;;5039639;28;19978;-60
2021/01/10 11:21:10;;;;;;;;;;;;;;;;;;5044587;28;20107;-63
2021/01/10 11:23:36;;;;;;;;;;;;;;;;;;5049469;28;19927;-63
2021/01/10 11:26:02;;;;;;;;;;;;;;;;;;5042489;28;20341;-60
2021/01/10 11:28:28;;;;;;;;;;;;;;;;;;5046598;28;20023;-61
2021/01/10 11:31:01;;;;;;;;;;;;;;;;;;5038482;28;20416;-62
2021/01/10 11:33:34;;;;;;;;;;;;;;;;;;5039249;28;20386;-62
2021/01/10 11:36:02;;;;;;;;;;;;;;;;;;5039824;28;20334;-61
2021/01/10 11:38:29;;;;;;;;;;;;;;;;;;5039752;28;19935;-60
2021/01/10 11:40:55;;;;;;;;;;;;;;;;;;5042200;28;19947;-62
2021/01/10 11:43:21;;;;;;;;;;;;;;;;;;5037792;28;20365;-61
2021/01/10 11:45:47;;;;;;;;;;;;;;;;;;5043558;28;19922;-62
2021/01/10 11:48:13;;;;;;;;;;;;;;;;;;5040604;28;20257;-61
2021/01/10 11:50:39;;;;;;;;;;;;;;;;;;5039435;28;19916;-62
2021/01/10 11:53:05;;;;;;;;;;;;;;;;;;5049385;28;19916;-62
2021/01/10 11:55:30;;;;;;;;;;;;;;;;;;5037384;28;20297;-62
2021/01/10 11:57:59;;;;;;;;;;;;;;;;;;5046824;28;19947;-62
2021/01/10 12:00:25;;;;;;;;;;;;;;;;;;5048065;28;19939;-62
2021/01/10 12:03:01;;;;;;;;;;;;;;;;;;5040878;28;19912;-63
2021/01/10 12:05:27;;;;;;;;;;;;;;;;;;5053291;28;20007;-63
2021/01/10 12:07:53;;;;;;;;;;;;;;;;;;5047513;28;19955;-64
2021/01/10 12:10:19;;;;;;;;;;;;;;;;;;5042816;28;20399;-63
2021/01/10 12:12:45;;;;;;;;;;;;;;;;;;5047158;28;19913;-62
2021/01/10 12:15:11;;;;;;;;;;;;;;;;;;5038741;28;20615;-62
2021/01/10 12:17:37;;;;;;;;;;;;;;;;;;5049442;28;19920;-62
2021/01/10 12:20:03;;;;;;;;;;;;;;;;;;5039926;28;20422;-62
2021/01/10 12:22:29;;;;;;;;;;;;;;;;;;5040457;28;19920;-62
2021/01/10 12:24:55;;;;;;;;;;;;;;;;;;5043418;28;20326;-62
2021/01/10 12:27:21;;;;;;;;;;;;;;;;;;5042237;28;19963;-62
2021/01/10 12:29:46;;;;;;;;;;;;;;;;;;5045482;28;20012;-62
2021/01/10 12:32:12;;;;;;;;;;;;;;;;;;5046773;28;19920;-61
2021/01/10 12:34:38;;;;;;;;;;;;;;;;;;5046455;28;19924;-62
2021/01/10 12:37:04;;;;;;;;;;;;;;;;;;5048534;28;19917;-63
2021/01/10 12:39:30;;;;;;;;;;;;;;;;;;5040767;28;19920;-63
2021/01/10 12:41:56;;;;;;;;;;;;;;;;;;5049890;28;19925;-62
2021/01/10 12:44:22;;;;;;;;;;;;;;;;;;5059728;28;19920;-63
2021/01/10 12:46:49;;;;;;;;;;;;;;;;;;5042025;28;19921;-60
2021/01/10 12:49:15;;;;;;;;;;;;;;;;;;5049111;28;20545;-63
2021/01/10 12:51:41;;;;;;;;;;;;;;;;;;5039129;28;19947;-63
2021/01/10 12:54:07;;;;;;;;;;;;;;;;;;5051076;28;19915;-62
2021/01/10 12:56:33;;;;;;;;;;;;;;;;;;5050960;28;19923;-61
2021/01/10 12:58:59;;;;;;;;;;;;;;;;;;5042593;28;20434;-62
2021/01/10 13:01:25;;;;;;;;;;;;;;;;;;5051506;28;19924;-62
2021/01/10 13:03:53;;;;;;;;;;;;;;;;;;5038791;28;20012;-62
2021/01/10 13:06:19;;;;;;;;;;;;;;;;;;5051827;28;21661;-61
2021/01/10 13:08:45;;;;;;;;;;;;;;;;;;5043314;28;19916;-61
2021/01/10 13:11:11;;;;;;;;;;;;;;;;;;5037468;28;19986;-61
2021/01/10 13:13:37;;;;;;;;;;;;;;;;;;5044708;28;20778;-61
2021/01/10 13:16:03;;;;;;;;;;;;;;;;;;5038555;28;19919;-61
2021/01/10 13:18:29;;;;;;;;;;;;;;;;;;5048435;28;19916;-61
2021/01/10 13:20:55;;;;;;;;;;;;;;;;;;5043516;28;20268;-61
2021/01/10 13:23:20;;;;;;;;;;;;;;;;;;5042907;28;19921;-61
2021/01/10 13:25:46;;;;;;;;;;;;;;;;;;5050821;28;19966;-61
2021/01/10 13:28:14;;;;;;;;;;;;;;;;;;5040405;28;19925;-61
2021/01/10 13:30:40;;;;;;;;;;;;;;;;;;5037833;28;19924;-61
2021/01/10 13:33:06;;;;;;;;;;;;;;;;;;5045545;28;20291;-62
2021/01/10 13:35:32;;;;;;;;;;;;;;;;;;5038737;28;19921;-61
2021/01/10 13:37:58;;;;;;;;;;;;;;;;;;5041802;28;19935;-62
2021/01/10 13:40:24;;;;;;;;;;;;;;;;;;5039892;28;20715;-61
2021/01/10 13:42:50;;;;;;;;;;;;;;;;;;5041708;28;20327;-61
2021/01/10 13:45:16;;;;;;;;;;;;;;;;;;5058737;28;19921;-61
2021/01/10 13:47:42;;;;;;;;;;;;;;;;;;5040931;28;19931;-62
2021/01/10 13:50:08;;;;;;;;;;;;;;;;;;5047840;28;20361;-61
2021/01/10 13:52:34;;;;;;;;;;;;;;;;;;5041366;28;20009;-61
2021/01/10 13:55:00;;;;;;;;;;;;;;;;;;5045993;28;19963;-63
2021/01/10 13:57:26;;;;;;;;;;;;;;;;;;5049812;28;19941;-62
2021/01/10 13:59:52;;;;;;;;;;;;;;;;;;5037981;28;19916;-60
2021/01/10 14:02:18;;;;;;;;;;;;;;;;;;5045364;28;20439;-62
2021/01/10 14:04:44;;;;;;;;;;;;;;;;;;5035344;28;19923;-61
2021/01/10 14:07:10;;;;;;;;;;;;;;;;;;5044024;28;20003;-61
2021/01/10 14:09:36;;;;;;;;;;;;;;;;;;5044859;28;19928;-62
2021/01/10 14:12:01;;;;;;;;;;;;;;;;;;5040855;28;19917;-62
2021/01/10 14:14:27;;;;;;;;;;;;;;;;;;5049745;28;19920;-61
2021/01/10 14:16:53;;;;;;;;;;;;;;;;;;5044795;28;19916;-61
2021/01/10 14:19:19;;;;;;;;;;;;;;;;;;5043831;28;19964;-62
2021/01/10 14:21:45;;;;;;;;;;;;;;;;;;5047234;28;20413;-61
2021/01/10 14:24:12;;;;;;;;;;;;;;;;;;5034941;28;19913;-61
2021/01/10 14:26:39;;;;;;;;;;;;;;;;;;5050119;28;19920;-61
2021/01/10 14:29:05;;;;;;;;;;;;;;;;;;5046205;28;20547;-62
2021/01/10 14:31:35;;;;;;;;;;;;;;;;;;5046966;28;20414;-60
2021/01/10 14:34:01;;;;;;;;;;;;;;;;;;5041090;28;19922;-60
2021/01/10 14:36:27;;;;;;;;;;;;;;;;;;5036577;28;19916;-60
2021/01/10 14:38:55;;;;;;;;;;;;;;;;;;5046763;28;19913;-60
2021/01/10 14:41:22;;;;;;;;;;;;;;;;;;5048908;28;19923;-61
2021/01/10 14:43:48;;;;;;;;;;;;;;;;;;5038390;28;19921;-60
2021/01/10 14:46:14;;;;;;;;;;;;;;;;;;5062370;28;19965;-61
2021/01/10 14:48:40;;;;;;;;;;;;;;;;;;5033401;28;19955;-61
2021/01/10 14:51:06;;;;;;;;;;;;;;;;;;5035919;28;19917;-61
2021/01/10 14:53:31;;;;;;;;;;;;;;;;;;5043131;28;19917;-61
2021/01/10 14:55:57;;;;;;;;;;;;;;;;;;5040458;28;19952;-60
2021/01/10 14:58:23;;;;;;;;;;;;;;;;;;5062250;28;19916;-61
2021/01/10 15:00:49;;;;;;;;;;;;;;;;;;5036950;28;19932;-62
2021/01/10 15:03:15;;;;;;;;;;;;;;;;;;5042269;28;20074;-61
2021/01/10 15:05:41;;;;;;;;;;;;;;;;;;5042073;28;19917;-62
2021/01/10 15:08:07;;;;;;;;;;;;;;;;;;5038781;28;19982;-62
2021/01/10 15:10:34;;;;;;;;;;;;;;;;;;5044066;28;19953;-61
2021/01/10 15:13:00;;;;;;;;;;;;;;;;;;5039533;28;20335;-61
2021/01/10 15:15:26;;;;;;;;;;;;;;;;;;5046384;28;19921;-61
2021/01/10 15:17:52;;;;;;;;;;;;;;;;;;5037833;28;19917;-59
2021/01/10 15:20:21;;;;;;;;;;;;;;;;;;5041281;28;19912;-58
2021/01/10 15:22:47;;;;;;;;;;;;;;;;;;5045651;28;19917;-59
2021/01/10 15:25:13;;;;;;;;;;;;;;;;;;5055015;28;19939;-60
2021/01/10 15:27:39;;;;;;;;;;;;;;;;;;5042792;28;19917;-58
2021/01/10 15:30:05;;;;;;;;;;;;;;;;;;5046367;28;19913;-59
2021/01/10 15:32:39;;;;;;;;;;;;;;;;;;5040182;28;19913;-59
2021/01/10 15:35:05;;;;;;;;;;;;;;;;;;5049109;28;19920;-60
2021/01/10 15:37:30;;;;;;;;;;;;;;;;;;5043444;28;20030;-59
2021/01/10 15:39:56;;;;;;;;;;;;;;;;;;5043560;28;20368;-60
2021/01/10 15:42:22;;;;;;;;;;;;;;;;;;5050765;28;19920;-60
2021/01/10 15:44:48;;;;;;;;;;;;;;;;;;5038543;28;20320;-59
2021/01/10 15:47:14;;;;;;;;;;;;;;;;;;5050202;28;19920;-59
2021/01/10 15:49:40;;;;;;;;;;;;;;;;;;5037915;28;19917;-60
2021/01/10 15:52:06;;;;;;;;;;;;;;;;;;5043384;28;19925;-59
2021/01/10 15:54:32;;;;;;;;;;;;;;;;;;5058579;28;19963;-59
2021/01/10 15:57:07;;;;;;;;;;;;;;;;;;5041077;28;19928;-60
2021/01/10 15:59:33;;;;;;;;;;;;;;;;;;5045639;28;19917;-59
2021/01/10 16:01:59;;;;;;;;;;;;;;;;;;5060182;28;19990;-60
2021/01/10 16:04:25;;;;;;;;;;;;;;;;;;5040105;28;19917;-59
2021/01/10 16:06:51;;;;;;;;;;;;;;;;;;5051759;28;20020;-61
2021/01/10 16:09:17;;;;;;;;;;;;;;;;;;5041289;28;19960;-61
2021/01/10 16:11:44;;;;;;;;;;;;;;;;;;5047445;28;20007;-61
2021/01/10 16:14:19;;;;;;;;;;;;;;;;;;5044430;28;19917;-61
2021/01/10 16:16:48;;;;;;;;;;;;;;;;;;5044149;28;19970;-61
2021/01/10 16:19:14;;;;;;;;;;;;;;;;;;5053260;28;19920;-60
2021/01/10 16:21:43;;;;;;;;;;;;;;;;;;5042913;28;20283;-61
2021/01/10 16:24:09;;;;;;;;;;;;;;;;;;5043125;28;19917;-61
2021/01/10 16:26:36;;;;;;;;;;;;;;;;;;5046950;28;20378;-61
2021/01/10 16:29:02;;;;;;;;;;;;;;;;;;5045192;28;19921;-61
2021/01/10 16:31:28;;;;;;;;;;;;;;;;;;5050607;28;19917;-61
2021/01/10 16:33:54;;;;;;;;;;;;;;;;;;5041099;28;20384;-61
2021/01/10 16:36:20;;;;;;;;;;;;;;;;;;5047645;28;19970;-61
2021/01/10 16:38:46;;;;;;;;;;;;;;;;;;5043915;28;19999;-61